Time;durP1;ratioP1;P1;durP2;ratioP2;P2;SDS_P1;SDS_P2;PMS_P1;PMS_P2;Temp;Humidity;BMP_temperature;BMP_pressure;BME280_temperature;BME280_humidity;BME280_pressure;Samples;Min_cycle;Max_cycle;Signal;HPM_P1;HPM_P2
2024/02/02 00:01:08;;;;;;;10.85;4.95;;;13.60;59.50;;;;;;6285939;28;20024;-71
2024/02/02 00:04:08;;;;;;;7.10;3.72;;;13.60;59.40;;;;;;6301941;28;20467;-70
2024/02/02 00:07:09;;;;;;;5.40;3.28;;;13.60;59.40;;;;;;6306882;28;20013;-70
2024/02/02 00:10:11;;;;;;;7.00;3.05;;;13.70;59.50;;;;;;6299533;28;20032;-70
2024/02/02 00:13:13;;;;;;;5.07;2.78;;;13.70;59.50;;;;;;6301267;28;20043;-71
2024/02/02 00:16:14;;;;;;;6.60;3.45;;;13.80;59.50;;;;;;6301793;28;20016;-72
2024/02/02 00:19:17;;;;;;;8.20;4.15;;;13.80;59.50;;;;;;6301790;28;20123;-72
2024/02/02 00:22:22;;;;;;;16.52;5.03;;;13.90;59.40;;;;;;6301988;28;20024;-72
2024/02/02 00:25:23;;;;;;;10.13;4.85;;;13.80;59.20;;;;;;6298604;28;20055;-71
2024/02/02 00:28:24;;;;;;;14.90;5.95;;;13.80;59.00;;;;;;6304879;28;20055;-72
2024/02/02 00:31:25;;;;;;;12.35;4.60;;;13.70;58.90;;;;;;6285255;28;20337;-71
2024/02/02 00:34:26;;;;;;;14.40;4.88;;;13.70;58.90;;;;;;6283528;28;20023;-72
2024/02/02 00:37:27;;;;;;;13.60;4.75;;;13.70;58.90;;;;;;6302481;28;20032;-71
2024/02/02 00:40:29;;;;;;;14.98;5.70;;;13.60;58.80;;;;;;6303509;28;20449;-73
2024/02/02 00:43:30;;;;;;;8.88;4.50;;;13.60;58.80;;;;;;6281544;28;20044;-71
2024/02/02 00:46:30;;;;;;;14.18;5.82;;;13.60;58.80;;;;;;6283565;28;20493;-71
2024/02/02 00:49:32;;;;;;;16.67;6.40;;;13.60;58.90;;;;;;6299332;28;20526;-70
2024/02/02 00:52:35;;;;;;;12.77;5.13;;;13.60;58.80;;;;;;6277920;28;20031;-72
2024/02/02 00:55:36;;;;;;;12.73;5.57;;;13.60;58.80;;;;;;6292232;28;20207;-72
2024/02/02 00:58:37;;;;;;;18.67;5.28;;;13.60;58.80;;;;;;6281359;28;20032;-72
2024/02/02 01:01:38;;;;;;;10.68;5.10;;;13.60;58.80;;;;;;6275935;28;20400;-70
2024/02/02 01:04:39;;;;;;;10.95;5.55;;;13.60;58.70;;;;;;6277012;28;20024;-71
2024/02/02 01:07:40;;;;;;;11.05;5.00;;;13.60;58.70;;;;;;6286214;28;20453;-71
2024/02/02 01:10:40;;;;;;;12.75;5.47;;;13.70;58.70;;;;;;6283380;28;20132;-70
2024/02/02 01:13:41;;;;;;;15.52;5.50;;;13.70;58.60;;;;;;6281619;28;20074;-72
2024/02/02 01:16:42;;;;;;;11.20;4.25;;;13.70;58.60;;;;;;6277239;28;20029;-71
2024/02/02 01:19:43;;;;;;;11.50;4.95;;;13.70;58.50;;;;;;6282437;28;20091;-71
2024/02/02 01:22:44;;;;;;;10.07;4.75;;;13.70;58.50;;;;;;6277399;28;20751;-70
2024/02/02 01:25:45;;;;;;;11.93;4.95;;;13.70;58.40;;;;;;6280944;28;20030;-70
2024/02/02 01:28:47;;;;;;;8.75;4.60;;;13.70;58.30;;;;;;6265480;28;20488;-71
2024/02/02 01:31:48;;;;;;;15.38;5.15;;;13.70;58.30;;;;;;6282525;28;20040;-71
2024/02/02 01:34:51;;;;;;;9.52;4.68;;;13.80;58.40;;;;;;6267281;28;20021;-70
2024/02/02 01:37:52;;;;;;;14.70;4.63;;;13.80;58.30;;;;;;6279041;28;20060;-72
2024/02/02 01:40:52;;;;;;;15.70;5.85;;;13.80;58.20;;;;;;6265124;28;20065;-71
2024/02/02 01:43:53;;;;;;;9.65;5.00;;;13.80;58.20;;;;;;6278702;28;20033;-71
2024/02/02 01:46:54;;;;;;;14.90;6.22;;;13.80;58.20;;;;;;6278439;28;20070;-71
2024/02/02 01:49:55;;;;;;;15.02;5.53;;;13.70;58.20;;;;;;6280782;28;20097;-71
2024/02/02 01:52:56;;;;;;;7.40;4.55;;;13.70;58.10;;;;;;6281865;28;20444;-72
2024/02/02 01:55:58;;;;;;;18.80;5.28;;;13.60;58.10;;;;;;6281431;28;20016;-70
2024/02/02 01:58:59;;;;;;;11.77;4.47;;;13.50;58.10;;;;;;6281347;28;20116;-72
2024/02/02 02:02:00;;;;;;;13.27;5.15;;;13.40;58.20;;;;;;6271557;28;20075;-73
2024/02/02 02:05:01;;;;;;;16.73;5.28;;;13.40;58.30;;;;;;6278532;28;20071;-72
2024/02/02 02:08:02;;;;;;;8.52;5.15;;;13.30;58.40;;;;;;6278072;28;20072;-71
2024/02/02 02:11:03;;;;;;;14.15;4.70;;;13.30;58.50;;;;;;6282123;28;20081;-72
2024/02/02 02:14:04;;;;;;;10.45;4.97;;;13.20;58.50;;;;;;6282494;28;20021;-72
2024/02/02 02:17:07;;;;;;;10.85;4.60;;;13.20;58.50;;;;;;6279066;28;20023;-72
2024/02/02 02:20:13;;;;;;;11.05;4.47;;;13.20;58.60;;;;;;6281461;28;20021;-71
2024/02/02 02:23:14;;;;;;;11.63;5.20;;;13.20;58.70;;;;;;6285106;28;20499;-72
2024/02/02 02:26:15;;;;;;;11.73;4.82;;;13.30;58.70;;;;;;6279492;28;20056;-72
2024/02/02 02:29:16;;;;;;;10.90;5.35;;;13.30;58.70;;;;;;6265688;28;20028;-70
2024/02/02 02:32:17;;;;;;;10.23;4.55;;;13.30;58.70;;;;;;6280520;28;20762;-72
2024/02/02 02:35:17;;;;;;;13.68;5.70;;;13.30;58.60;;;;;;6246120;28;20082;-71
2024/02/02 02:38:18;;;;;;;10.90;4.97;;;13.30;58.60;;;;;;6264126;28;20029;-72
2024/02/02 02:41:19;;;;;;;11.95;5.40;;;13.40;58.60;;;;;;6285189;28;20074;-70
2024/02/02 02:44:20;;;;;;;11.95;5.22;;;13.40;58.60;;;;;;6282132;28;20516;-72
2024/02/02 02:47:21;;;;;;;11.95;4.90;;;13.40;58.60;;;;;;6279644;28;20514;-71
2024/02/02 02:50:23;;;;;;;13.35;5.03;;;13.40;58.60;;;;;;6278639;28;20017;-72
2024/02/02 02:53:24;;;;;;;13.60;5.85;;;13.40;58.60;;;;;;6278500;28;20125;-71
2024/02/02 02:56:25;;;;;;;16.55;6.10;;;13.30;58.50;;;;;;6281240;28;20032;-71
2024/02/02 02:59:26;;;;;;;24.30;5.95;;;13.30;58.50;;;;;;6277855;28;20021;-72
2024/02/02 03:02:28;;;;;;;14.13;5.47;;;13.20;58.50;;;;;;6258689;28;20051;-71
2024/02/02 03:05:30;;;;;;;10.27;5.72;;;13.20;58.50;;;;;;6279787;28;20137;-73
2024/02/02 03:08:31;;;;;;;15.73;6.65;;;13.10;58.70;;;;;;6284633;28;20028;-71
2024/02/02 03:11:33;;;;;;;12.73;5.97;;;13.00;58.80;;;;;;6281063;28;20024;-71
2024/02/02 03:14:34;;;;;;;15.10;5.95;;;12.90;58.90;;;;;;6275622;28;20016;-71
2024/02/02 03:17:35;;;;;;;21.50;7.18;;;12.90;59.10;;;;;;6278217;28;20028;-70
2024/02/02 03:20:36;;;;;;;11.52;5.95;;;12.80;59.20;;;;;;6280113;28;20025;-72
2024/02/02 03:23:37;;;;;;;14.27;6.32;;;12.70;59.30;;;;;;6276613;28;20036;-71
2024/02/02 03:26:38;;;;;;;16.73;6.40;;;12.70;59.40;;;;;;6275890;28;20036;-71
2024/02/02 03:29:39;;;;;;;14.05;5.82;;;12.60;59.60;;;;;;6284294;28;20020;-70
2024/02/02 03:32:41;;;;;;;15.77;6.70;;;12.60;59.70;;;;;;6275325;28;20358;-71
2024/02/02 03:35:42;;;;;;;14.00;6.68;;;12.50;59.80;;;;;;6274295;28;20140;-71
2024/02/02 03:38:43;;;;;;;15.82;6.30;;;12.50;59.80;;;;;;6279127;28;20222;-70
2024/02/02 03:45:05;;;;;;;15.70;6.97;;;12.40;59.90;;;;;;6275835;28;20039;-70
2024/02/02 03:48:06;;;;;;;12.85;6.13;;;12.40;59.90;;;;;;6280138;28;20111;-71
2024/02/02 03:51:07;;;;;;;16.42;6.15;;;12.40;59.90;;;;;;6278169;28;20445;-70
2024/02/02 03:54:10;;;;;;;10.60;5.88;;;12.40;60.00;;;;;;6283146;28;20063;-72
2024/02/02 03:57:12;;;;;;;14.23;6.45;;;12.30;60.00;;;;;;6290825;28;20386;-70
2024/02/02 04:00:13;;;;;;;19.55;7.30;;;12.30;60.20;;;;;;6283519;28;20040;-71
2024/02/02 04:03:15;;;;;;;16.02;6.60;;;12.20;60.40;;;;;;6274678;28;20035;-72
2024/02/02 04:06:16;;;;;;;19.80;6.28;;;12.20;60.50;;;;;;6262876;28;20017;-72
2024/02/02 04:09:17;;;;;;;13.77;5.78;;;12.20;60.80;;;;;;6280205;28;20052;-70
2024/02/02 04:12:18;;;;;;;16.17;6.32;;;12.10;60.90;;;;;;6273034;28;20361;-72
2024/02/02 04:15:18;;;;;;;15.35;6.05;;;12.20;61.00;;;;;;6278054;28;20032;-71
2024/02/02 04:18:19;;;;;;;14.40;5.57;;;12.10;61.00;;;;;;6278713;28;20053;-72
2024/02/02 04:21:22;;;;;;;18.48;5.60;;;12.20;61.10;;;;;;6278350;28;20029;-71
2024/02/02 04:24:22;;;;;;;12.18;5.45;;;12.20;61.10;;;;;;6274634;28;20024;-72
2024/02/02 04:27:23;;;;;;;16.85;6.00;;;12.20;61.40;;;;;;6279907;28;20023;-71
2024/02/02 04:30:24;;;;;;;12.27;5.75;;;12.20;61.00;;;;;;6265454;28;20016;-72
2024/02/02 04:33:25;;;;;;;19.00;6.10;;;12.20;61.00;;;;;;6285489;28;20421;-72
2024/02/02 04:36:26;;;;;;;18.77;7.25;;;12.20;61.10;;;;;;6282173;28;20089;-71
2024/02/02 04:39:27;;;;;;;18.58;6.07;;;12.10;61.10;;;;;;6278758;28;20017;-69
2024/02/02 04:42:28;;;;;;;12.02;5.93;;;12.20;61.10;;;;;;6271611;28;20013;-74
2024/02/02 04:45:28;;;;;;;14.55;6.35;;;12.20;61.10;;;;;;6277048;28;20029;-71
2024/02/02 04:48:29;;;;;;;14.23;6.10;;;12.20;61.00;;;;;;6281224;28;20024;-72
2024/02/02 04:51:30;;;;;;;16.80;5.72;;;12.20;61.00;;;;;;6266617;28;20132;-71
2024/02/02 04:54:31;;;;;;;14.55;5.78;;;12.20;61.00;;;;;;6283762;28;20017;-71
2024/02/02 04:57:32;;;;;;;14.98;6.22;;;12.20;61.10;;;;;;6281733;28;20055;-71
2024/02/02 05:00:33;;;;;;;15.55;6.40;;;12.20;61.10;;;;;;6262202;28;20465;-71
2024/02/02 05:03:35;;;;;;;10.43;5.53;;;12.10;60.90;;;;;;6260737;28;20197;-70
2024/02/02 05:06:36;;;;;;;9.35;5.15;;;12.20;61.10;;;;;;6273599;28;20467;-71
2024/02/02 05:09:37;;;;;;;16.75;5.97;;;12.10;61.00;;;;;;6261907;28;20017;-72
2024/02/02 05:12:38;;;;;;;12.07;6.60;;;12.10;61.10;;;;;;6282658;28;20711;-70
2024/02/02 05:15:40;;;;;;;13.05;5.70;;;12.10;61.10;;;;;;6278771;28;20013;-72
2024/02/02 05:18:41;;;;;;;15.05;6.43;;;12.10;61.00;;;;;;6280410;28;20028;-71
2024/02/02 05:21:42;;;;;;;14.85;6.53;;;12.10;61.10;;;;;;6269863;28;20040;-71
2024/02/02 05:24:45;;;;;;;18.35;6.60;;;12.00;61.00;;;;;;6253490;28;20090;-71
2024/02/02 05:27:46;;;;;;;14.30;5.30;;;12.00;61.20;;;;;;6282622;28;20020;-71
2024/02/02 05:30:47;;;;;;;10.93;5.88;;;12.00;61.20;;;;;;6281158;28;20020;-72
2024/02/02 05:33:47;;;;;;;17.98;7.13;;;12.00;61.20;;;;;;6263065;28;20067;-71
2024/02/02 05:36:49;;;;;;;18.23;5.90;;;12.00;61.20;;;;;;6284056;28;20035;-72
2024/02/02 05:39:50;;;;;;;18.33;6.22;;;12.00;61.10;;;;;;6287144;28;20024;-71
2024/02/02 05:42:51;;;;;;;15.63;6.50;;;11.90;61.10;;;;;;6287693;28;20727;-72
2024/02/02 05:45:52;;;;;;;14.60;5.88;;;11.90;61.20;;;;;;6287726;28;20358;-72
2024/02/02 05:48:53;;;;;;;14.80;7.25;;;11.90;61.20;;;;;;6285633;28;20012;-71
2024/02/02 05:51:54;;;;;;;15.48;6.15;;;11.90;61.20;;;;;;6288955;28;20424;-72
2024/02/02 05:54:55;;;;;;;13.38;6.13;;;11.90;61.20;;;;;;6272346;28;20540;-73
2024/02/02 05:57:57;;;;;;;12.07;6.18;;;11.90;61.20;;;;;;6292378;28;20077;-72
2024/02/02 06:00:58;;;;;;;14.13;6.13;;;11.90;61.20;;;;;;6290933;28;20060;-72
2024/02/02 06:03:59;;;;;;;21.58;6.75;;;11.90;61.20;;;;;;6290649;28;20081;-71
2024/02/02 06:07:00;;;;;;;11.18;5.90;;;11.90;61.20;;;;;;6287386;28;20461;-69
2024/02/02 06:10:01;;;;;;;13.73;5.75;;;11.90;61.20;;;;;;6288339;28;20024;-71
2024/02/02 06:13:02;;;;;;;18.88;6.07;;;11.90;61.20;;;;;;6289358;28;20025;-70
2024/02/02 06:16:03;;;;;;;19.42;5.88;;;11.90;61.90;;;;;;6271003;28;20081;-70
2024/02/02 06:19:04;;;;;;;11.93;5.30;;;11.90;61.00;;;;;;6289054;28;20028;-70
2024/02/02 06:22:05;;;;;;;11.63;5.35;;;12.00;61.90;;;;;;6270831;28;20194;-71
2024/02/02 06:25:06;;;;;;;15.18;6.10;;;12.00;60.80;;;;;;6269333;28;20223;-70
2024/02/02 06:28:08;;;;;;;11.68;5.45;;;12.00;60.80;;;;;;6289772;28;20029;-72
2024/02/02 06:31:09;;;;;;;12.52;5.72;;;12.00;60.60;;;;;;6272181;28;20119;-71
2024/02/02 06:34:10;;;;;;;21.50;7.00;;;12.10;60.70;;;;;;6290568;28;20029;-70
2024/02/02 06:37:10;;;;;;;13.10;5.93;;;12.00;60.50;;;;;;6280402;28;20099;-71
2024/02/02 06:40:12;;;;;;;12.40;5.65;;;12.10;60.60;;;;;;6268453;28;20017;-73
2024/02/02 06:43:12;;;;;;;18.55;6.57;;;12.10;60.50;;;;;;6278064;28;20111;-73
2024/02/02 06:46:14;;;;;;;10.75;4.93;;;12.10;60.50;;;;;;6276696;28;20507;-73
2024/02/02 06:49:16;;;;;;;22.45;6.35;;;12.10;60.40;;;;;;6276698;28;20124;-75
2024/02/02 06:52:19;;;;;;;18.33;7.10;;;12.10;60.40;;;;;;6281036;28;20032;-74
2024/02/02 06:55:20;;;;;;;15.80;5.93;;;12.10;60.30;;;;;;6276375;28;20551;-74
2024/02/02 06:58:42;;;;;;;18.17;7.10;;;12.10;60.30;;;;;;6276799;28;20151;-74
2024/02/02 07:01:44;;;;;;;13.65;5.60;;;12.00;60.30;;;;;;6277407;28;20025;-76
2024/02/02 07:04:46;;;;;;;15.40;5.72;;;12.10;60.20;;;;;;6279487;28;20027;-76
2024/02/02 07:07:47;;;;;;;17.27;5.22;;;12.10;60.20;;;;;;6273930;28;20024;-73
2024/02/02 07:11:01;;;;;;;15.13;5.43;;;12.10;60.10;;;;;;6284287;28;20024;-75
2024/02/02 07:14:09;;;;;;;13.65;5.65;;;12.10;60.00;;;;;;6274524;28;20051;-75
2024/02/02 07:17:36;;;;;;;16.38;6.15;;;12.20;60.00;;;;;;6275820;28;20023;-75
2024/02/02 07:20:59;;;;;;;12.85;5.90;;;12.20;59.90;;;;;;6278903;28;20106;-74
2024/02/02 07:24:02;;;;;;;18.55;5.97;;;12.10;59.80;;;;;;6262315;28;20056;-75
2024/02/02 07:27:04;;;;;;;20.15;6.10;;;12.10;59.70;;;;;;6277424;28;20119;-75
2024/02/02 07:30:19;;;;;;;15.80;5.07;;;12.20;59.80;;;;;;6275607;28;20125;-75
2024/02/02 07:33:41;;;;;;;17.55;6.18;;;12.20;59.70;;;;;;6278174;28;20017;-74
2024/02/02 07:36:42;;;;;;;10.20;5.20;;;12.20;59.60;;;;;;6276776;28;20009;-75
2024/02/02 07:39:43;;;;;;;15.68;6.47;;;12.10;59.60;;;;;;6274853;28;20480;-75
2024/02/02 07:42:44;;;;;;;12.30;5.22;;;12.10;59.50;;;;;;6277602;28;20109;-76
2024/02/02 07:45:45;;;;;;;11.75;5.30;;;12.10;59.50;;;;;;6275019;28;20024;-75
2024/02/02 07:48:48;;;;;;;12.40;5.20;;;12.10;59.50;;;;;;6283434;28;20051;-76
2024/02/02 07:51:49;;;;;;;17.85;6.13;;;12.10;59.50;;;;;;6274970;28;20014;-75
2024/02/02 07:54:50;;;;;;;13.63;6.18;;;12.10;59.50;;;;;;6290075;28;20107;-76
2024/02/02 07:57:51;;;;;;;21.30;6.53;;;12.10;59.50;;;;;;6281663;28;20599;-74
2024/02/02 08:00:53;;;;;;;15.90;5.47;;;12.10;59.50;;;;;;6273895;28;20428;-76
2024/02/02 08:03:54;;;;;;;10.43;6.03;;;12.20;59.60;;;;;;6275778;28;20129;-73
2024/02/02 08:06:55;;;;;;;16.95;6.68;;;12.20;59.50;;;;;;6266136;28;20415;-74
2024/02/02 08:09:58;;;;;;;15.85;6.68;;;12.20;59.40;;;;;;6264968;28;20028;-73
2024/02/02 08:13:00;;;;;;;15.07;5.97;;;12.20;59.40;;;;;;6283299;28;20008;-73
2024/02/02 08:16:02;;;;;;;21.10;7.38;;;12.20;59.90;;;;;;6277787;28;20110;-73
2024/02/02 08:19:03;;;;;;;15.10;6.70;;;12.30;59.30;;;;;;6286814;28;20016;-74
2024/02/02 08:22:04;;;;;;;14.73;6.00;;;12.30;59.30;;;;;;6265473;28;20021;-75
2024/02/02 08:25:06;;;;;;;15.65;6.57;;;12.40;59.30;;;;;;6280209;28;20140;-75
2024/02/02 08:28:08;;;;;;;21.77;5.72;;;12.40;59.20;;;;;;6283636;28;20093;-74
2024/02/02 08:31:09;;;;;;;21.42;8.13;;;12.50;59.20;;;;;;6261204;28;20048;-74
2024/02/02 08:34:10;;;;;;;16.45;7.28;;;12.60;59.20;;;;;;6279014;28;20113;-76
2024/02/02 08:37:11;;;;;;;16.65;6.65;;;12.70;59.10;;;;;;6284870;28;20461;-74
2024/02/02 08:40:43;;;;;;;14.23;6.28;;;12.90;59.50;;;;;;6279474;28;20055;-75
2024/02/02 08:43:47;;;;;;;18.50;7.25;;;13.10;58.70;;;;;;6172732;28;20080;-76
2024/02/02 08:46:49;;;;;;;21.52;7.85;;;13.20;58.30;;;;;;6207405;28;20038;-75
2024/02/02 08:49:59;;;;;;;16.42;7.15;;;13.40;58.10;;;;;;6194110;28;20089;-73
2024/02/02 08:53:00;;;;;;;17.00;7.20;;;13.50;58.00;;;;;;6191476;28;20030;-74
2024/02/02 08:56:02;;;;;;;18.45;6.65;;;13.60;57.80;;;;;;6211175;28;20061;-74
2024/02/02 08:59:28;;;;;;;15.95;6.68;;;13.70;57.60;;;;;;6207927;28;20120;-75
2024/02/02 09:02:57;;;;;;;10.43;6.22;;;13.80;57.50;;;;;;6204748;28;20045;-77
2024/02/02 09:06:02;;;;;;;10.93;5.93;;;14.00;57.10;;;;;;6208257;28;20040;-72
2024/02/02 09:09:05;;;;;;;15.77;7.65;;;14.00;56.90;;;;;;6186362;28;20485;-75
2024/02/02 09:12:06;;;;;;;18.63;7.68;;;14.10;56.70;;;;;;6191676;28;20040;-75
2024/02/02 09:15:17;;;;;;;28.08;8.20;;;14.10;57.10;;;;;;6186468;28;20242;-74
2024/02/02 09:18:34;;;;;;;17.95;8.45;;;14.10;56.60;;;;;;6191556;28;20100;-75
2024/02/02 09:21:36;;;;;;;19.52;6.60;;;14.00;56.50;;;;;;6281705;28;20642;-73
2024/02/02 09:24:41;;;;;;;20.75;6.78;;;13.90;57.20;;;;;;6278035;28;20028;-77
2024/02/02 09:27:42;;;;;;;24.70;7.85;;;13.90;56.60;;;;;;6277368;28;20443;-76
2024/02/02 09:30:56;;;;;;;18.02;7.30;;;13.90;56.60;;;;;;6279770;28;20060;-74
2024/02/02 09:33:58;;;;;;;16.45;7.32;;;13.90;56.60;;;;;;6279959;28;20151;-76
2024/02/02 09:37:00;;;;;;;14.15;6.70;;;13.90;56.20;;;;;;6275772;28;20133;-76
2024/02/02 09:40:28;;;;;;;15.40;7.53;;;13.90;56.20;;;;;;6285861;28;20020;-74
2024/02/02 09:43:30;;;;;;;18.35;8.60;;;13.90;56.30;;;;;;6267186;28;20486;-77
2024/02/02 09:46:56;;;;;;;16.77;8.60;;;14.00;56.10;;;;;;6287996;28;20034;-77
2024/02/02 09:50:18;;;;;;;16.88;7.80;;;14.00;55.90;;;;;;6277437;28;20021;-74
2024/02/02 09:53:34;;;;;;;22.30;8.32;;;14.00;55.90;;;;;;6282938;28;20074;-75
2024/02/02 09:56:48;;;;;;;19.52;7.40;;;14.00;56.00;;;;;;6278940;28;20095;-75
2024/02/02 10:00:06;;;;;;;18.05;7.70;;;14.10;55.90;;;;;;6280775;28;20028;-74
2024/02/02 10:03:29;;;;;;;15.65;7.20;;;14.20;55.50;;;;;;6296510;28;20103;-74
2024/02/02 10:06:42;;;;;;;18.10;7.00;;;14.10;55.40;;;;;;6282095;28;20033;-74
2024/02/02 10:10:06;;;;;;;12.27;7.05;;;14.20;55.50;;;;;;6278145;28;20106;-74
2024/02/02 10:13:40;;;;;;;20.70;8.15;;;14.10;55.30;;;;;;6275801;28;20024;-74
2024/02/02 10:16:55;;;;;;;20.00;9.07;;;14.00;55.30;;;;;;6228295;28;20822;-75
2024/02/02 10:20:23;;;;;;;16.33;8.52;;;14.10;55.50;;;;;;6214729;28;20033;-73
2024/02/02 10:23:31;;;;;;;24.45;9.00;;;14.20;55.70;;;;;;6209408;28;20037;-73
2024/02/02 10:26:46;;;;;;;18.17;9.02;;;14.40;55.30;;;;;;6196356;28;20461;-74
2024/02/02 10:30:21;;;;;;;16.60;8.25;;;14.60;55.10;;;;;;6214508;28;20148;-75
2024/02/02 10:33:32;;;;;;;26.17;9.15;;;14.80;54.80;;;;;;6154952;28;20468;-74
2024/02/02 10:36:52;;;;;;;25.20;9.23;;;15.10;54.00;;;;;;6128509;28;20027;-75
2024/02/02 10:39:59;;;;;;;18.45;8.30;;;15.20;54.00;;;;;;6121468;28;20572;-75
2024/02/02 10:43:36;;;;;;;16.55;8.45;;;15.30;54.00;;;;;;6137897;28;20042;-73
2024/02/02 10:46:56;;;;;;;19.98;9.52;;;15.40;53.90;;;;;;6155178;28;20054;-74
2024/02/02 10:50:35;;;;;;;15.90;8.38;;;15.60;53.60;;;;;;6136610;28;20542;-74
2024/02/02 10:54:00;;;;;;;22.65;8.95;;;15.70;53.20;;;;;;6147967;28;20132;-74
2024/02/02 10:57:17;;;;;;;22.05;9.07;;;15.90;53.00;;;;;;6162538;28;20031;-75
2024/02/02 11:00:21;;;;;;;19.95;8.25;;;16.10;52.70;;;;;;6176011;28;20494;-76
2024/02/02 11:03:43;;;;;;;19.85;8.77;;;16.40;52.10;;;;;;6162578;28;20042;-75
2024/02/02 11:07:13;;;;;;;24.08;9.63;;;16.80;51.70;;;;;;6177148;28;20155;-75
2024/02/02 11:10:20;;;;;;;23.30;9.07;;;17.20;51.10;;;;;;6259853;28;20033;-76
2024/02/02 11:13:38;;;;;;;32.40;10.27;;;17.80;49.80;;;;;;6274287;28;20024;-75
2024/02/02 11:16:56;;;;;;;14.80;7.67;;;18.20;48.30;;;;;;6281781;28;20021;-75
2024/02/02 11:19:58;;;;;;;14.95;8.10;;;18.60;47.40;;;;;;6279473;28;20202;-76
2024/02/02 11:23:11;;;;;;;15.65;7.30;;;19.00;46.90;;;;;;6275668;28;20028;-74
2024/02/02 11:26:21;;;;;;;16.60;7.22;;;19.40;45.70;;;;;;6279454;28;20643;-75
2024/02/02 11:29:42;;;;;;;14.07;6.35;;;19.90;45.00;;;;;;6278896;28;20020;-74
2024/02/02 11:33:16;;;;;;;13.40;6.70;;;20.30;43.30;;;;;;6275640;28;20519;-75
2024/02/02 11:36:45;;;;;;;14.52;7.63;;;20.50;42.90;;;;;;6256913;28;20135;-75
2024/02/02 11:40:06;;;;;;;20.02;7.20;;;20.90;42.40;;;;;;6279399;28;20123;-75
2024/02/02 11:43:10;;;;;;;17.60;7.80;;;21.30;40.60;;;;;;6266999;28;20020;-76
2024/02/02 11:46:18;;;;;;;17.25;7.15;;;21.70;40.50;;;;;;6266007;28;20024;-76
2024/02/02 11:49:30;;;;;;;14.10;6.55;;;22.20;39.80;;;;;;6264386;28;20032;-75
2024/02/02 11:52:42;;;;;;;17.70;7.53;;;22.70;38.10;;;;;;6270512;28;20043;-73
2024/02/02 11:55:47;;;;;;;12.20;7.22;;;23.00;38.40;;;;;;6278867;28;20173;-76
2024/02/02 11:59:27;;;;;;;12.63;7.00;;;23.60;36.90;;;;;;6277086;28;20495;-76
2024/02/02 12:02:43;;;;;;;16.58;7.53;;;23.90;36.20;;;;;;6275999;28;20020;-75
2024/02/02 12:06:08;;;;;;;12.07;5.13;;;24.30;35.40;;;;;;6281789;28;20092;-75
2024/02/02 12:09:27;;;;;;;9.30;5.13;;;24.40;34.70;;;;;;6273140;28;20048;-75
2024/02/02 12:12:38;;;;;;;10.93;5.22;;;24.40;34.30;;;;;;6278870;28;20028;-75
2024/02/02 12:15:39;;;;;;;13.45;6.53;;;23.90;34.40;;;;;;6278343;28;21375;-75
2024/02/02 12:18:40;;;;;;;17.02;6.82;;;23.40;35.70;;;;;;6276611;28;20024;-75
2024/02/02 12:21:44;;;;;;;15.10;6.97;;;23.10;36.00;;;;;;6282724;28;20459;-74
2024/02/02 12:24:48;;;;;;;14.40;6.70;;;22.50;36.80;;;;;;6277030;28;20174;-75
2024/02/02 12:27:49;;;;;;;17.17;6.90;;;21.80;37.90;;;;;;6277000;28;20131;-75
2024/02/02 12:30:50;;;;;;;10.90;5.53;;;21.20;38.90;;;;;;6281336;28;20048;-77
2024/02/02 12:33:51;;;;;;;9.70;4.43;;;20.60;39.70;;;;;;6278058;28;20582;-75
2024/02/02 12:36:52;;;;;;;7.50;3.83;;;20.20;40.60;;;;;;6273959;28;20489;-74
2024/02/02 12:39:54;;;;;;;5.70;2.92;;;19.80;40.90;;;;;;6278405;28;20050;-75
2024/02/02 12:42:57;;;;;;;6.03;3.05;;;19.40;41.50;;;;;;6275398;28;20013;-74
2024/02/02 12:45:58;;;;;;;5.60;2.90;;;19.10;41.80;;;;;;6260768;28;20116;-74
2024/02/02 12:48:59;;;;;;;5.70;2.72;;;18.80;42.20;;;;;;6279044;28;20108;-75
2024/02/02 12:52:00;;;;;;;5.55;2.47;;;18.70;42.60;;;;;;6280905;28;20047;-74
2024/02/02 12:55:02;;;;;;;5.13;2.97;;;18.60;42.90;;;;;;6278956;28;20120;-74
2024/02/02 12:58:03;;;;;;;8.68;2.05;;;18.50;43.10;;;;;;6276285;28;20085;-75
2024/02/02 13:01:05;;;;;;;3.75;2.10;;;18.30;43.50;;;;;;6284408;28;20508;-73
2024/02/02 13:04:08;;;;;;;9.00;2.63;;;18.30;43.80;;;;;;6282604;28;20033;-74
2024/02/02 13:07:10;;;;;;;9.48;2.03;;;18.20;43.90;;;;;;6289296;28;20012;-76
2024/02/02 13:10:11;;;;;;;6.07;2.25;;;18.10;44.00;;;;;;6270632;28;20052;-75
2024/02/02 13:13:14;;;;;;;8.43;2.88;;;18.10;44.20;;;;;;6278885;28;20097;-75
2024/02/02 13:16:26;;;;;;;12.57;4.70;;;17.90;44.20;;;;;;6259948;28;20024;-74
2024/02/02 13:19:34;;;;;;;11.15;3.75;;;17.80;44.50;;;;;;6275852;28;20037;-74
2024/02/02 13:22:37;;;;;;;8.98;4.38;;;17.70;44.90;;;;;;6243897;28;20504;-77
2024/02/02 13:25:49;;;;;;;10.52;3.80;;;17.70;45.10;;;;;;6283382;28;20055;-75
2024/02/02 13:28:52;;;;;;;9.43;3.70;;;17.60;45.20;;;;;;6279447;28;20020;-74
2024/02/02 13:31:53;;;;;;;7.40;3.33;;;17.70;45.20;;;;;;6275222;28;20033;-75
2024/02/02 13:34:58;;;;;;;11.00;4.50;;;17.70;45.10;;;;;;6280398;28;20012;-74
2024/02/02 13:38:02;;;;;;;11.25;4.40;;;17.80;45.10;;;;;;6277925;28;20077;-75
2024/02/02 13:41:04;;;;;;;6.20;3.40;;;17.80;45.10;;;;;;6279874;28;20137;-73
2024/02/02 13:44:06;;;;;;;7.93;3.15;;;17.80;45.10;;;;;;6254766;28;20032;-74
2024/02/02 13:47:13;;;;;;;2.80;2.20;;;17.80;45.10;;;;;;6297497;28;20480;-74
2024/02/02 13:50:29;;;;;;;7.28;3.58;;;17.80;45.00;;;;;;6273236;28;20017;-74
2024/02/02 13:53:34;;;;;;;6.13;2.78;;;17.80;44.80;;;;;;6270189;28;20828;-74
2024/02/02 13:56:35;;;;;;;4.55;2.75;;;17.80;44.90;;;;;;6286627;28;20036;-73
2024/02/02 13:59:37;;;;;;;5.28;2.47;;;17.70;44.90;;;;;;6282396;28;20464;-74
2024/02/02 14:02:38;;;;;;;4.85;2.20;;;17.70;44.90;;;;;;6280152;28;20019;-75
2024/02/02 14:05:40;;;;;;;5.82;1.67;;;17.70;44.90;;;;;;6279774;28;20064;-75
2024/02/02 14:08:44;;;;;;;6.68;1.85;;;17.70;44.90;;;;;;6265909;28;20020;-75
2024/02/02 14:11:46;;;;;;;4.45;2.33;;;17.80;44.80;;;;;;6262633;28;20109;-73
2024/02/02 14:14:47;;;;;;;2.80;1.65;;;17.80;44.70;;;;;;6277066;28;20105;-76
2024/02/02 14:17:49;;;;;;;9.82;2.38;;;17.60;44.80;;;;;;6278266;28;20111;-75
2024/02/02 14:20:51;;;;;;;3.13;2.10;;;17.80;44.90;;;;;;6277774;28;20013;-75
2024/02/02 14:23:51;;;;;;;2.58;1.52;;;17.80;44.80;;;;;;6272944;28;20036;-76
2024/02/02 14:26:59;;;;;;;4.28;1.98;;;17.80;44.70;;;;;;6281853;28;20107;-75
2024/02/02 14:30:04;;;;;;;3.47;2.08;;;17.90;44.80;;;;;;6285974;28;20526;-75
2024/02/02 14:33:06;;;;;;;5.50;2.03;;;17.90;44.70;;;;;;6263014;28;20683;-73
2024/02/02 14:36:09;;;;;;;3.17;1.77;;;17.90;44.70;;;;;;6277229;28;20031;-76
2024/02/02 14:39:22;;;;;;;3.75;2.40;;;17.90;44.70;;;;;;6277995;28;20044;-76
2024/02/02 14:42:24;;;;;;;3.15;1.65;;;18.00;44.70;;;;;;6281412;28;20063;-75
2024/02/02 14:45:25;;;;;;;2.95;2.25;;;18.00;44.60;;;;;;6280199;28;20508;-75
2024/02/02 14:48:26;;;;;;;4.57;2.60;;;17.90;44.40;;;;;;6262140;28;20103;-74
2024/02/02 14:51:28;;;;;;;5.72;2.30;;;17.80;44.50;;;;;;6280861;28;20042;-74
2024/02/02 14:54:30;;;;;;;4.07;1.90;;;17.80;44.70;;;;;;6276427;28;20538;-79
2024/02/02 14:57:31;;;;;;;5.22;2.10;;;17.70;44.80;;;;;;6282899;28;20028;-78
2024/02/02 15:00:32;;;;;;;3.38;2.00;;;17.70;44.80;;;;;;6261180;28;20048;-75
2024/02/02 15:03:34;;;;;;;8.30;2.20;;;17.70;45.40;;;;;;6278808;28;20039;-75
2024/02/02 15:06:37;;;;;;;3.75;1.98;;;17.60;44.80;;;;;;6277011;28;20023;-75
2024/02/02 15:09:41;;;;;;;6.13;2.50;;;17.60;44.90;;;;;;6282802;28;20046;-75
2024/02/02 15:12:42;;;;;;;3.88;1.48;;;17.60;45.00;;;;;;6278444;28;20017;-73
2024/02/02 15:15:43;;;;;;;2.97;1.67;;;17.50;45.00;;;;;;6278490;28;20013;-74
2024/02/02 15:18:46;;;;;;;3.25;2.00;;;17.50;45.00;;;;;;6277046;28;20028;-74
2024/02/02 15:21:47;;;;;;;5.10;2.10;;;17.40;45.10;;;;;;6277725;28;20109;-76
2024/02/02 15:24:48;;;;;;;5.13;2.10;;;17.40;45.20;;;;;;6277656;28;20408;-74
2024/02/02 15:27:48;;;;;;;3.47;1.90;;;17.40;45.30;;;;;;6259614;28;20038;-75
2024/02/02 15:30:50;;;;;;;5.07;2.58;;;17.40;45.40;;;;;;6281112;28;20017;-76
2024/02/02 15:33:52;;;;;;;3.67;2.10;;;17.30;45.40;;;;;;6278201;28;20025;-73
2024/02/02 15:36:54;;;;;;;4.13;2.00;;;17.30;45.50;;;;;;6276746;28;20415;-75
2024/02/02 15:39:57;;;;;;;3.17;2.00;;;17.30;45.50;;;;;;6279767;28;20493;-75
2024/02/02 15:42:57;;;;;;;3.42;1.98;;;17.20;45.60;;;;;;6276161;28;20040;-75
2024/02/02 15:45:58;;;;;;;3.33;1.88;;;17.20;45.80;;;;;;6272003;28;20522;-75
2024/02/02 15:49:00;;;;;;;6.22;1.67;;;17.10;45.90;;;;;;6275406;28;20071;-75
2024/02/02 15:52:03;;;;;;;2.95;1.77;;;17.00;46.00;;;;;;6276519;28;20380;-77
2024/02/02 15:55:05;;;;;;;4.65;2.33;;;17.00;46.20;;;;;;6261782;28;20043;-74